createdAt,value
2023-05-19T00:02:26.210Z,3.03
2023-05-19T00:07:31.375Z,3.60
2023-05-19T00:12:33.322Z,2.92
2023-05-19T00:17:35.154Z,3.55
2023-05-19T00:22:37.109Z,2.80
2023-05-19T00:27:38.801Z,2.60
2023-05-19T00:32:40.751Z,2.60
2023-05-19T00:37:42.473Z,2.58
2023-05-19T00:42:44.141Z,3.30
2023-05-19T00:47:45.947Z,2.67
2023-05-19T00:52:47.690Z,3.60
2023-05-19T00:57:49.919Z,3.38
2023-05-19T01:02:51.828Z,3.20
2023-05-19T01:07:55.610Z,2.75
2023-05-19T01:12:57.432Z,3.28
2023-05-19T01:18:08.286Z,3.80
2023-05-19T01:23:21.558Z,2.83
2023-05-19T01:28:49.147Z,2.78
2023-05-19T01:33:53.263Z,2.92
2023-05-19T01:38:58.552Z,4.07
2023-05-19T01:44:00.769Z,3.33
2023-05-19T01:49:03.122Z,3.30
2023-05-19T01:54:04.833Z,3.78
2023-05-19T01:59:23.949Z,3.63
2023-05-19T02:04:51.182Z,3.30
2023-05-19T02:10:30.974Z,3.33
2023-05-19T02:15:42.319Z,2.95
2023-05-19T02:20:44.152Z,3.72
2023-05-19T02:25:45.883Z,3.55
2023-05-19T02:30:47.583Z,3.78
2023-05-19T02:35:49.303Z,3.40
2023-05-19T02:40:52.402Z,4.10
2023-05-19T02:45:54.266Z,3.67
2023-05-19T02:50:55.988Z,4.53
2023-05-19T02:55:57.671Z,5.88
2023-05-19T03:00:59.328Z,6.30
2023-05-19T03:06:01.963Z,4.90
2023-05-19T03:11:03.862Z,5.55
2023-05-19T03:16:08.113Z,5.10
2023-05-19T03:21:10.201Z,4.72
2023-05-19T03:26:11.886Z,5.95
2023-05-19T03:31:13.644Z,4.75
2023-05-19T03:36:16.318Z,5.03
2023-05-19T03:41:18.071Z,4.57
2023-05-19T03:46:19.980Z,5.15
2023-05-19T03:51:21.677Z,4.30
2023-05-19T03:56:27.785Z,4.60
2023-05-19T04:01:29.603Z,4.03
2023-05-19T04:06:33.968Z,4.13
2023-05-19T04:11:36.655Z,4.28
2023-05-19T04:16:38.518Z,5.25
2023-05-19T04:21:40.192Z,4.07
2023-05-19T04:26:45.951Z,4.07
2023-05-19T04:31:49.114Z,4.20
2023-05-19T04:36:53.249Z,4.32
2023-05-19T04:41:56.729Z,4.20
2023-05-19T04:47:00.234Z,3.95
2023-05-19T04:52:02.079Z,4.65
2023-05-19T04:57:05.843Z,4.60
2023-05-19T05:02:11.225Z,4.55
2023-05-19T05:07:12.989Z,3.85
2023-05-19T05:12:15.589Z,4.00
2023-05-19T05:17:17.734Z,4.40
2023-05-19T05:22:19.890Z,3.58
2023-05-19T05:27:21.662Z,3.80
2023-05-19T05:32:23.635Z,2.80
2023-05-19T05:37:25.628Z,3.90
2023-05-19T05:42:29.699Z,4.55
2023-05-19T05:47:32.579Z,3.15
2023-05-19T05:52:36.641Z,3.92
2023-05-19T05:57:41.939Z,3.47
2023-05-19T06:02:47.369Z,4.07
2023-05-19T06:07:50.096Z,3.55
2023-05-19T06:12:56.492Z,3.25
2023-05-19T06:18:00.236Z,3.08
2023-05-19T06:23:02.932Z,3.38
2023-05-19T06:28:04.996Z,3.63
2023-05-19T06:33:07.322Z,3.28
2023-05-19T06:38:09.224Z,2.97
2023-05-19T06:43:11.461Z,2.80
2023-05-19T06:48:35.157Z,2.72
2023-05-19T06:53:38.212Z,2.80
2023-05-19T06:58:43.757Z,3.10
2023-05-19T07:03:46.923Z,2.72
2023-05-19T07:08:50.113Z,2.60
2023-05-19T07:13:52.819Z,2.40
2023-05-19T07:19:00.522Z,2.78
2023-05-19T07:24:02.278Z,2.50
2023-05-19T07:29:04.310Z,2.85
2023-05-19T07:34:06.080Z,2.85
2023-05-19T07:39:07.828Z,3.55
2023-05-19T07:44:10.449Z,3.20
2023-05-19T07:49:12.132Z,2.65
2023-05-19T07:54:13.779Z,2.63
2023-05-19T07:59:16.086Z,3.13
2023-05-19T08:04:17.933Z,2.97
2023-05-19T08:09:20.217Z,2.70
2023-05-19T08:14:22.930Z,2.95
2023-05-19T08:19:24.755Z,2.55
2023-05-19T08:24:26.669Z,2.70
2023-05-19T08:29:28.334Z,2.83
2023-05-19T08:34:29.987Z,1.95
2023-05-19T08:39:34.226Z,3.38
2023-05-19T08:44:37.623Z,2.20
2023-05-19T08:49:50.592Z,2.30
2023-05-19T08:55:21.849Z,2.05
2023-05-19T09:00:23.964Z,2.08
2023-05-19T09:05:25.746Z,2.00
2023-05-19T09:10:29.120Z,2.60
2023-05-19T09:15:31.969Z,2.40
2023-05-19T09:20:37.289Z,2.30
2023-05-19T09:25:50.276Z,2.40
2023-05-19T09:31:01.540Z,2.28
2023-05-19T09:36:06.150Z,3.13
2023-05-19T09:41:09.152Z,2.75
2023-05-19T09:46:14.770Z,2.85
2023-05-19T09:51:17.584Z,2.20
2023-05-19T09:56:23.813Z,2.05
2023-05-19T10:01:26.691Z,2.30
2023-05-19T10:06:28.702Z,2.83
2023-05-19T10:11:30.823Z,2.53
2023-05-19T10:16:33.798Z,2.63
2023-05-19T10:21:35.495Z,2.65
2023-05-19T10:26:39.072Z,2.83
2023-05-19T10:31:41.447Z,2.70
2023-05-19T10:36:46.468Z,2.65
2023-05-19T10:42:23.926Z,3.17
2023-05-19T10:47:26.323Z,2.95
2023-05-19T10:52:30.854Z,2.97
2023-05-19T10:57:33.346Z,2.33
2023-05-19T11:02:42.348Z,2.53
2023-05-19T11:07:55.338Z,1.98
2023-05-19T11:12:58.415Z,2.30
2023-05-19T11:18:01.951Z,2.15
2023-05-19T11:23:03.631Z,2.72
2023-05-19T11:28:05.888Z,2.45
2023-05-19T11:33:08.235Z,2.65
2023-05-19T11:38:11.241Z,2.05
2023-05-19T11:43:12.904Z,2.17
2023-05-19T11:48:16.104Z,1.75
2023-05-19T11:53:19.847Z,2.28
2023-05-19T11:58:27.849Z,1.90
2023-05-19T12:03:29.885Z,2.00
2023-05-19T12:08:31.810Z,1.95
2023-05-19T12:13:33.659Z,2.10
2023-05-19T12:18:39.224Z,2.30
2023-05-19T12:23:41.839Z,1.90
2023-05-19T12:28:45.631Z,2.13
2023-05-19T12:33:52.618Z,2.30
2023-05-19T12:38:55.612Z,2.03
2023-05-19T12:43:57.256Z,2.58
2023-05-19T12:49:01.008Z,3.05
2023-05-19T12:54:04.676Z,2.92
2023-05-19T12:59:06.401Z,2.80
2023-05-19T13:04:08.340Z,2.38
2023-05-19T13:09:10.879Z,2.63
2023-05-19T13:14:12.638Z,2.95
2023-05-19T13:19:25.536Z,2.75
2023-05-19T13:24:27.895Z,2.90
2023-05-19T13:29:29.598Z,2.80
2023-05-19T13:34:31.350Z,2.30
2023-05-19T13:39:33.438Z,3.47
2023-05-19T13:44:35.176Z,3.20
2023-05-19T13:49:36.872Z,3.70
2023-05-19T13:54:38.543Z,3.10
2023-05-19T13:59:52.902Z,3.10
2023-05-19T14:05:02.798Z,2.53
2023-05-19T14:10:07.041Z,2.58
2023-05-19T14:15:11.451Z,3.70
2023-05-19T14:20:13.363Z,3.35
2023-05-19T14:25:15.086Z,4.00
2023-05-19T14:30:16.744Z,4.00
2023-05-19T14:35:18.444Z,4.07
2023-05-19T14:40:20.368Z,3.90
2023-05-19T14:45:22.181Z,3.28
2023-05-19T14:50:23.897Z,3.85
2023-05-19T14:55:25.679Z,3.65
2023-05-19T15:00:27.384Z,4.20
2023-05-19T15:05:29.054Z,4.25
2023-05-19T15:10:31.084Z,4.32
2023-05-19T15:15:32.876Z,4.00
2023-05-19T15:20:34.922Z,3.83
2023-05-19T15:25:37.279Z,3.78
2023-05-19T15:30:39.962Z,3.60
2023-05-19T15:35:41.959Z,3.85
2023-05-19T15:40:43.664Z,3.90
2023-05-19T15:45:45.395Z,4.00
2023-05-19T15:50:47.155Z,4.10
2023-05-19T15:55:48.842Z,2.78
2023-05-19T16:00:50.657Z,4.15
2023-05-19T16:05:53.194Z,3.55
2023-05-19T16:10:55.297Z,3.85
2023-05-19T16:15:56.976Z,4.75
2023-05-19T16:20:58.636Z,5.03
2023-05-19T16:26:00.457Z,4.22
2023-05-19T16:31:02.118Z,4.50
2023-05-19T16:36:03.999Z,4.75
2023-05-19T16:41:06.883Z,4.28
2023-05-19T16:46:09.951Z,4.35
2023-05-19T16:51:11.722Z,5.03
2023-05-19T16:56:13.380Z,4.65
2023-05-19T17:01:16.230Z,4.70
2023-05-19T17:06:17.887Z,4.80
2023-05-19T17:11:19.537Z,3.90
2023-05-19T17:16:21.422Z,4.43
2023-05-19T17:21:23.087Z,4.45
2023-05-19T17:26:24.749Z,3.70
2023-05-19T17:31:26.449Z,4.22
2023-05-19T17:36:28.429Z,3.80
2023-05-19T17:41:30.251Z,4.07
2023-05-19T17:46:34.728Z,4.13
2023-05-19T17:51:36.961Z,4.03
2023-05-19T17:56:42.186Z,4.07
2023-05-19T18:01:44.350Z,4.15
2023-05-19T18:06:46.615Z,3.78
2023-05-19T18:11:48.338Z,3.75
2023-05-19T18:16:50.131Z,3.55
2023-05-19T18:21:51.860Z,3.80
2023-05-19T18:26:53.506Z,3.60
2023-05-19T18:31:55.332Z,3.88
2023-05-19T18:36:57.025Z,4.07
2023-05-19T18:41:58.937Z,3.97
2023-05-19T18:47:01.137Z,4.65
2023-05-19T18:52:02.867Z,4.45
2023-05-19T18:57:05.103Z,4.63
2023-05-19T19:02:06.926Z,4.68
2023-05-19T19:07:08.614Z,4.72
2023-05-19T19:12:10.829Z,4.82
2023-05-19T19:17:12.749Z,5.15
2023-05-19T19:22:14.528Z,4.28
2023-05-19T19:27:20.931Z,4.88
2023-05-19T19:32:23.068Z,5.32
2023-05-19T19:37:24.795Z,5.70
2023-05-19T19:42:26.440Z,6.47
2023-05-19T19:47:28.128Z,5.45
2023-05-19T19:52:29.811Z,5.80
2023-05-19T19:57:34.140Z,6.22
2023-05-19T20:02:41.045Z,6.18
2023-05-19T20:07:47.428Z,5.78
2023-05-19T20:12:50.643Z,6.35
2023-05-19T20:17:52.396Z,6.80
2023-05-19T20:22:54.177Z,6.38
2023-05-19T20:27:55.822Z,6.78
2023-05-19T20:32:57.716Z,7.13
2023-05-19T20:37:59.510Z,7.43
2023-05-19T20:43:01.245Z,7.88
2023-05-19T20:48:03.817Z,7.82
2023-05-19T20:53:07.396Z,8.50
2023-05-19T20:58:09.136Z,8.07
2023-05-19T21:03:11.719Z,8.52
2023-05-19T21:08:13.556Z,8.43
2023-05-19T21:13:15.219Z,8.25
2023-05-19T21:18:16.902Z,7.68
2023-05-19T21:23:18.614Z,8.75
2023-05-19T21:28:20.332Z,8.75
2023-05-19T21:33:23.125Z,8.57
2023-05-19T21:38:25.009Z,8.20
2023-05-19T21:43:26.828Z,8.70
2023-05-19T21:48:28.484Z,9.07
2023-05-19T21:53:31.466Z,8.25
2023-05-19T21:58:34.470Z,8.32
2023-05-19T22:03:36.250Z,8.80
2023-05-19T22:08:37.958Z,9.10
2023-05-19T22:13:41.239Z,8.10
2023-05-19T22:18:43.348Z,8.45
2023-05-19T22:23:45.047Z,9.65
2023-05-19T22:28:46.685Z,10.02
2023-05-19T22:33:48.380Z,8.40
2023-05-19T22:38:50.129Z,9.73
2023-05-19T22:43:51.786Z,9.55
2023-05-19T22:48:53.426Z,8.98
2023-05-19T22:53:55.103Z,9.05
2023-05-19T22:58:56.771Z,9.68
2023-05-19T23:03:58.482Z,8.35
2023-05-19T23:09:04.482Z,9.30
2023-05-19T23:14:06.197Z,8.70
2023-05-19T23:19:07.951Z,9.32
2023-05-19T23:24:09.616Z,10.40
2023-05-19T23:29:13.078Z,10.15
2023-05-19T23:34:14.745Z,10.80
2023-05-19T23:39:16.397Z,11.52
2023-05-19T23:44:18.602Z,10.73
2023-05-19T23:49:20.450Z,11.02
2023-05-19T23:54:22.146Z,10.27
2023-05-19T23:59:23.792Z,12.00
